createdAt,value
2019-05-14T00:00:52.256Z,102385.70
2019-05-14T00:03:21.733Z,102386.54
2019-05-14T00:05:51.493Z,102387.34
2019-05-14T00:08:19.326Z,102387.87
2019-05-14T00:10:47.525Z,102381.02
2019-05-14T00:13:15.632Z,102385.29
2019-05-14T00:15:43.883Z,102387.44
2019-05-14T00:18:12.008Z,102389.55
2019-05-14T00:20:41.968Z,102387.08
2019-05-14T00:23:11.830Z,102380.48
2019-05-14T00:25:41.881Z,102377.28
2019-05-14T00:28:11.786Z,102386.55
2019-05-14T00:30:42.098Z,102377.28
2019-05-14T00:33:11.575Z,102376.97
2019-05-14T00:35:41.362Z,102373.87
2019-05-14T00:38:11.748Z,102372.09
2019-05-14T00:40:41.799Z,102370.73
2019-05-14T00:43:11.306Z,102379.23
2019-05-14T00:45:41.629Z,102372.75
2019-05-14T00:48:09.227Z,102371.14
2019-05-14T00:50:37.493Z,102366.22
2019-05-14T00:53:05.655Z,102369.13
2019-05-14T00:55:33.739Z,102372.33
2019-05-14T00:58:02.493Z,102372.56
2019-05-14T01:00:31.341Z,102369.94
2019-05-14T01:03:01.802Z,102372.61
2019-05-14T01:05:29.433Z,102365.44
2019-05-14T01:07:57.549Z,102367.45
2019-05-14T01:10:25.790Z,102359.16
2019-05-14T01:12:53.943Z,102366.32
2019-05-14T01:15:22.050Z,102363.09
2019-05-14T01:17:51.615Z,102360.17
2019-05-14T01:20:21.243Z,102363.45
2019-05-14T01:22:51.422Z,102353.82
2019-05-14T01:25:19.491Z,102361.17
2019-05-14T01:27:47.605Z,102358.99
2019-05-14T01:30:15.763Z,102350.94
2019-05-14T01:32:43.947Z,102359.84
2019-05-14T01:35:12.260Z,102357.89
2019-05-14T01:37:41.632Z,102352.17
2019-05-14T01:40:11.412Z,102345.79
2019-05-14T01:42:41.649Z,102334.91
2019-05-14T01:45:23.467Z,102346.67
2019-05-14T01:47:41.453Z,102342.31
2019-05-14T01:50:11.317Z,102341.98
2019-05-14T01:52:41.624Z,102337.23
2019-05-14T01:55:11.410Z,102336.23
2019-05-14T01:57:39.522Z,102333.94
2019-05-14T02:00:08.842Z,102327.58
2019-05-14T02:02:37.057Z,102324.00
2019-05-14T02:05:05.477Z,102320.01
2019-05-14T02:07:33.603Z,102314.25
2019-05-14T02:10:01.694Z,102321.75
2019-05-14T02:12:31.568Z,102325.78
2019-05-14T02:15:01.878Z,102318.53
2019-05-14T02:17:31.694Z,102324.05
2019-05-14T02:20:01.860Z,102324.45
2019-05-14T02:22:31.905Z,102323.12
2019-05-14T02:24:59.461Z,102315.07
2019-05-14T02:27:27.564Z,102317.20
2019-05-14T02:29:55.830Z,102322.02
2019-05-14T02:32:23.969Z,102309.19
2019-05-14T02:34:52.414Z,102303.70
2019-05-14T02:37:20.693Z,102302.23
2019-05-14T02:39:50.245Z,102295.96
2019-05-14T02:42:19.703Z,102302.59
2019-05-14T02:44:49.195Z,102307.45
2019-05-14T02:47:19.494Z,102301.27
2019-05-14T02:49:50.253Z,102302.45
2019-05-14T02:52:20.466Z,102304.57
2019-05-14T02:54:49.540Z,102300.59
2019-05-14T02:57:19.726Z,102300.00
2019-05-14T02:59:49.883Z,102308.76
2019-05-14T03:02:18.780Z,102305.27
2019-05-14T03:04:49.544Z,102306.05
2019-05-14T03:07:19.382Z,102303.74
2019-05-14T03:09:46.330Z,102307.67
2019-05-14T03:12:14.563Z,102311.02
2019-05-14T03:14:42.913Z,102307.08
2019-05-14T03:17:11.169Z,102301.73
2019-05-14T03:19:40.708Z,102314.84
2019-05-14T03:22:10.315Z,102316.73
2019-05-14T03:24:39.851Z,102310.95
2019-05-14T03:27:09.607Z,102313.80
2019-05-14T03:29:39.709Z,102308.02
2019-05-14T03:32:13.090Z,102315.29
2019-05-14T03:34:43.139Z,102315.84
2019-05-14T03:37:12.751Z,102315.45
2019-05-14T03:39:39.654Z,102311.38
2019-05-14T03:42:09.393Z,102320.21
2019-05-14T03:44:39.904Z,102313.58
2019-05-14T03:47:10.333Z,102315.34
2019-05-14T03:49:39.741Z,102311.44
2019-05-14T03:52:09.545Z,102305.91
2019-05-14T03:54:40.256Z,102317.04
2019-05-14T03:57:09.522Z,102300.11
2019-05-14T03:59:40.332Z,102306.52
2019-05-14T04:02:09.694Z,102303.49
2019-05-14T04:04:39.417Z,102307.91
2019-05-14T04:07:09.976Z,102307.34
2019-05-14T04:09:40.104Z,102305.63
2019-05-14T04:12:10.305Z,102307.45
2019-05-14T04:14:40.543Z,102306.41
2019-05-14T04:17:15.525Z,102302.55
2019-05-14T04:19:43.383Z,102305.20
2019-05-14T04:22:14.341Z,102301.05
2019-05-14T04:24:43.743Z,102303.77
2019-05-14T04:27:13.783Z,102301.56
2019-05-14T04:29:44.464Z,102293.59
2019-05-14T04:32:14.283Z,102297.68
2019-05-14T04:34:42.469Z,102286.64
2019-05-14T04:37:12.387Z,102295.15
2019-05-14T04:39:40.534Z,102296.97
2019-05-14T04:42:09.793Z,102297.53
2019-05-14T04:44:40.376Z,102296.52
2019-05-14T04:47:22.554Z,102297.08
2019-05-14T04:49:39.794Z,102299.67
2019-05-14T04:52:10.090Z,102289.95
2019-05-14T04:54:39.449Z,102288.86
2019-05-14T04:57:10.161Z,102296.14
2019-05-14T04:59:39.689Z,102292.70
2019-05-14T05:02:09.685Z,102299.41
2019-05-14T05:04:41.245Z,102295.92
2019-05-14T05:07:09.921Z,102299.88
2019-05-14T05:09:39.795Z,102297.58
2019-05-14T05:12:09.083Z,102295.31
2019-05-14T05:14:38.935Z,102298.06
2019-05-14T05:17:09.205Z,102304.87
2019-05-14T05:19:39.373Z,102306.02
2019-05-14T05:22:08.022Z,102313.97
2019-05-14T05:24:38.101Z,102327.64
2019-05-14T05:27:06.386Z,102315.48
2019-05-14T05:29:35.161Z,102321.34
2019-05-14T05:32:03.279Z,102320.80
2019-05-14T05:34:31.413Z,102314.00
2019-05-14T05:37:19.114Z,102329.00
2019-05-14T05:39:49.139Z,102323.54
2019-05-14T05:42:18.810Z,102318.40
2019-05-14T05:44:48.362Z,102315.77
2019-05-14T05:47:18.297Z,102317.10
2019-05-14T05:49:48.840Z,102310.88
2019-05-14T05:52:18.917Z,102313.88
2019-05-14T05:54:48.780Z,102315.22
2019-05-14T05:57:18.588Z,102309.62
2019-05-14T05:59:48.508Z,102312.91
2019-05-14T06:02:18.392Z,102316.56
2019-05-14T06:04:48.061Z,102312.16
2019-05-14T06:07:18.283Z,102314.59
2019-05-14T06:09:48.128Z,102311.06
2019-05-14T06:12:15.847Z,102307.93
2019-05-14T06:14:43.994Z,102298.27
2019-05-14T06:17:12.123Z,102304.46
2019-05-14T06:19:40.248Z,102302.05
2019-05-14T06:22:09.754Z,102298.53
2019-05-14T06:24:38.985Z,102294.39
2019-05-14T06:27:09.450Z,102289.77
2019-05-14T06:29:38.274Z,102297.58
2019-05-14T06:32:09.079Z,102292.92
2019-05-14T06:34:38.223Z,102286.29
2019-05-14T06:37:08.444Z,102282.34
2019-05-14T06:39:38.845Z,102279.69
2019-05-14T06:42:08.742Z,102284.67
2019-05-14T06:44:38.382Z,102286.00
2019-05-14T06:47:06.093Z,102290.83
2019-05-14T06:49:34.222Z,102282.72
2019-05-14T06:52:02.309Z,102283.98
2019-05-14T06:54:30.444Z,102282.67
2019-05-14T06:56:58.781Z,102281.19
2019-05-14T06:59:28.789Z,102290.33
2019-05-14T07:01:58.071Z,102289.79
2019-05-14T07:04:28.654Z,102287.22
2019-05-14T07:06:58.864Z,102281.45
2019-05-14T07:09:28.755Z,102283.06
2019-05-14T07:11:58.500Z,102282.08
2019-05-14T07:14:28.291Z,102283.70
2019-05-14T07:16:58.586Z,102280.41
2019-05-14T07:19:25.936Z,102281.21
2019-05-14T07:21:54.136Z,102282.42
2019-05-14T07:24:22.338Z,102279.56
2019-05-14T07:26:50.607Z,102284.83
2019-05-14T07:29:18.786Z,102284.22
2019-05-14T07:31:48.971Z,102282.27
2019-05-14T07:34:19.008Z,102276.06
2019-05-14T07:36:48.904Z,102278.09
2019-05-14T07:39:18.563Z,102277.65
2019-05-14T07:41:48.398Z,102277.70
2019-05-14T07:44:18.265Z,102272.08
2019-05-14T07:46:48.276Z,102271.51
2019-05-14T07:49:18.311Z,102274.31
2019-05-14T07:51:48.009Z,102275.44
2019-05-14T07:54:16.444Z,102281.97
2019-05-14T07:56:44.608Z,102284.89
2019-05-14T07:59:12.822Z,102285.66
2019-05-14T08:01:40.958Z,102280.69
2019-05-14T08:04:10.982Z,102281.25
2019-05-14T08:06:39.541Z,102284.07
2019-05-14T08:09:09.137Z,102269.53
2019-05-14T08:11:38.743Z,102260.45
2019-05-14T08:14:09.050Z,102265.48
2019-05-14T08:16:38.146Z,102261.59
2019-05-14T08:19:20.912Z,102264.73
2019-05-14T08:21:38.564Z,102259.91
2019-05-14T08:24:08.829Z,102254.86
2019-05-14T08:26:38.231Z,102261.56
2019-05-14T08:29:08.510Z,102259.01
2019-05-14T08:31:38.279Z,102243.25
2019-05-14T08:34:06.685Z,102245.47
2019-05-14T08:36:37.821Z,102239.52
2019-05-14T08:39:08.851Z,102241.42
2019-05-14T08:41:38.376Z,102238.79
2019-05-14T08:44:08.578Z,102236.39
2019-05-14T08:46:38.689Z,102240.84
2019-05-14T08:49:08.800Z,102236.95
2019-05-14T08:51:38.862Z,102234.24
2019-05-14T08:54:08.204Z,102236.44
2019-05-14T08:56:38.754Z,102239.77
2019-05-14T08:59:08.511Z,102235.38
2019-05-14T09:01:38.530Z,102231.08
2019-05-14T09:04:08.787Z,102224.20
2019-05-14T09:06:35.214Z,102221.23
2019-05-14T09:09:05.065Z,102227.80
2019-05-14T09:11:36.360Z,102227.81
2019-05-14T09:14:03.268Z,102224.56
2019-05-14T09:16:43.164Z,102221.45
2019-05-14T09:19:01.523Z,102222.72
2019-05-14T09:21:29.861Z,102221.57
2019-05-14T09:23:58.715Z,102215.81
2019-05-14T09:26:28.462Z,102223.02
2019-05-14T09:28:58.657Z,102223.75
2019-05-14T09:31:29.449Z,102206.49
2019-05-14T09:33:58.494Z,102208.66
2019-05-14T09:36:28.758Z,102209.84
2019-05-14T09:38:58.388Z,102205.41
2019-05-14T09:41:27.685Z,102201.64
2019-05-14T09:43:55.112Z,102197.77
2019-05-14T09:46:23.244Z,102205.73
2019-05-14T09:48:51.363Z,102203.22
2019-05-14T09:51:19.559Z,102191.83
2019-05-14T09:53:48.903Z,102195.03
2019-05-14T09:56:18.617Z,102199.47
2019-05-14T09:58:49.244Z,102185.66
2019-05-14T10:01:19.338Z,102183.25
2019-05-14T10:03:49.347Z,102192.63
2019-05-14T10:06:16.736Z,102179.90
2019-05-14T10:08:44.848Z,102177.42
2019-05-14T10:11:12.988Z,102170.55
2019-05-14T10:13:41.162Z,102171.17
2019-05-14T10:16:09.700Z,102176.84
2019-05-14T10:18:38.148Z,102181.64
2019-05-14T10:21:08.624Z,102180.26
2019-05-14T10:23:35.236Z,102178.59
2019-05-14T10:26:03.470Z,102194.53
2019-05-14T10:28:31.582Z,102185.33
2019-05-14T10:31:03.560Z,102169.95
2019-05-14T10:33:28.907Z,102177.41
2019-05-14T10:35:58.863Z,102181.14
2019-05-14T10:38:29.542Z,102174.28
2019-05-14T10:40:58.239Z,102172.61
2019-05-14T10:43:28.767Z,102166.83
2019-05-14T10:45:58.065Z,102154.08
2019-05-14T10:48:26.178Z,102150.77
2019-05-14T10:50:59.958Z,102159.47
2019-05-14T10:53:23.340Z,102147.91
2019-05-14T10:55:51.461Z,102137.03
2019-05-14T10:58:20.301Z,102129.63
2019-05-14T11:00:49.498Z,102126.11
2019-05-14T11:03:18.604Z,102118.30
2019-05-14T11:05:48.131Z,102126.25
2019-05-14T11:08:18.720Z,102128.72
2019-05-14T11:10:46.234Z,102126.72
2019-05-14T11:13:14.407Z,102123.17
2019-05-14T11:15:42.536Z,102125.60
2019-05-14T11:18:10.634Z,102124.53
2019-05-14T11:20:42.173Z,102114.23
2019-05-14T11:23:09.071Z,102113.81
2019-05-14T11:25:38.315Z,102101.39
2019-05-14T11:28:06.730Z,102088.73
2019-05-14T11:30:34.902Z,102098.47
2019-05-14T11:33:03.053Z,102109.14
2019-05-14T11:35:31.189Z,102102.20
2019-05-14T11:37:59.392Z,102097.96
2019-05-14T11:40:29.402Z,102084.84
2019-05-14T11:42:59.187Z,102089.53
2019-05-14T11:45:27.328Z,102087.20
2019-05-14T11:47:55.465Z,102086.84
2019-05-14T11:50:23.665Z,102081.07
2019-05-14T11:52:51.863Z,102091.23
2019-05-14T11:55:20.062Z,102071.24
2019-05-14T11:57:48.622Z,102075.06
2019-05-14T12:00:19.612Z,102064.84
2019-05-14T12:02:47.584Z,102064.81
2019-05-14T12:05:18.729Z,102062.34
2019-05-14T12:07:45.873Z,102058.43
2019-05-14T12:10:14.808Z,102063.89
2019-05-14T12:12:43.061Z,102059.19
2019-05-14T12:15:11.682Z,102059.45
2019-05-14T12:17:39.928Z,102051.16
2019-05-14T12:20:08.363Z,102050.80
2019-05-14T12:22:39.031Z,102057.75
2019-05-14T12:25:08.168Z,102044.62
2019-05-14T12:27:38.766Z,102047.41
2019-05-14T12:30:09.646Z,102034.61
2019-05-14T12:32:39.630Z,102032.52
2019-05-14T12:35:08.628Z,102028.09
2019-05-14T12:37:38.499Z,102031.48
2019-05-14T12:40:08.557Z,102025.25
2019-05-14T12:42:38.853Z,102022.46
2019-05-14T12:45:09.150Z,102018.78
2019-05-14T12:47:38.466Z,102009.41
2019-05-14T12:50:09.383Z,102020.44
2019-05-14T12:52:38.957Z,102019.20
2019-05-14T12:55:09.105Z,102018.34
2019-05-14T12:57:39.392Z,102021.94
2019-05-14T13:00:08.941Z,102016.83
2019-05-14T13:02:37.350Z,102003.08
2019-05-14T13:05:05.545Z,101996.67
2019-05-14T13:07:33.687Z,101995.86
2019-05-14T13:10:01.878Z,101975.28
2019-05-14T13:12:30.011Z,101989.98
2019-05-14T13:14:58.173Z,102000.70
2019-05-14T13:17:28.135Z,101988.48
2019-05-14T13:19:56.399Z,101982.83
2019-05-14T13:22:38.426Z,101979.31
2019-05-14T13:24:54.384Z,101978.22
2019-05-14T13:27:22.518Z,101971.75
2019-05-14T13:29:50.693Z,101971.30
2019-05-14T13:32:19.524Z,101968.30
2019-05-14T13:34:48.652Z,101964.10
2019-05-14T13:37:18.001Z,101953.49
2019-05-14T13:39:52.028Z,101960.81
2019-05-14T13:42:18.533Z,101951.17
2019-05-14T13:44:45.982Z,101947.88
2019-05-14T13:47:14.126Z,101949.94
2019-05-14T13:49:42.404Z,101954.83
2019-05-14T13:52:10.530Z,101946.78
2019-05-14T13:54:39.406Z,101931.27
2019-05-14T13:57:09.073Z,101937.20
2019-05-14T13:59:43.974Z,101921.73
2019-05-14T14:02:09.892Z,101924.09
2019-05-14T14:04:38.212Z,101920.55
2019-05-14T14:07:09.100Z,101916.44
2019-05-14T14:12:03.416Z,101905.70
2019-05-14T14:14:31.621Z,101903.48
2019-05-14T14:16:59.853Z,101906.78
2019-05-14T14:19:28.316Z,101906.48
2019-05-14T14:21:59.134Z,101909.73
2019-05-14T14:24:28.863Z,101903.52
2019-05-14T14:26:58.370Z,101902.95
2019-05-14T14:29:26.162Z,101883.37
2019-05-14T14:31:54.321Z,101886.39
2019-05-14T14:34:22.522Z,101879.32
2019-05-14T14:36:54.873Z,101870.16
2019-05-14T14:39:20.610Z,101860.45
2019-05-14T14:41:49.151Z,101867.41
2019-05-14T14:44:19.101Z,101863.55
2019-05-14T14:46:48.350Z,101859.81
2019-05-14T14:49:18.752Z,101867.13
2019-05-14T14:51:48.941Z,101859.59
2019-05-14T14:54:16.568Z,101866.78
2019-05-14T14:56:44.866Z,101861.02
2019-05-14T14:59:13.119Z,101867.54
2019-05-14T15:01:41.278Z,101856.47
2019-05-14T15:04:13.527Z,101853.17
2019-05-14T15:06:40.004Z,101851.05
2019-05-14T15:09:09.764Z,101844.91
2019-05-14T15:11:39.717Z,101851.81
2019-05-14T15:14:08.525Z,101851.45
2019-05-14T15:16:39.088Z,101849.18
2019-05-14T15:19:09.231Z,101840.80
2019-05-14T15:21:36.567Z,101839.12
2019-05-14T15:24:13.817Z,101828.81
2019-05-14T15:26:34.646Z,101832.08
2019-05-14T15:29:02.929Z,101829.42
2019-05-14T15:31:31.125Z,101830.05
2019-05-14T15:33:59.600Z,101830.23
2019-05-14T15:36:27.763Z,101829.05
2019-05-14T15:38:55.883Z,101830.99
2019-05-14T15:41:24.041Z,101830.88
2019-05-14T15:43:52.318Z,101833.32
2019-05-14T15:46:20.469Z,101826.70
2019-05-14T15:48:48.930Z,101823.85
2019-05-14T15:51:19.622Z,101827.58
2019-05-14T15:54:06.475Z,101809.28
2019-05-14T15:56:18.726Z,101822.80
2019-05-14T15:58:47.040Z,101814.61
2019-05-14T16:01:15.213Z,101806.66
2019-05-14T16:03:43.296Z,101807.23
2019-05-14T16:06:11.462Z,101806.84
2019-05-14T16:08:40.381Z,101801.02
2019-05-14T16:11:11.484Z,101805.52
2019-05-14T16:13:39.816Z,101802.86
2019-05-14T16:16:10.514Z,101793.80
2019-05-14T16:18:38.607Z,101798.14
2019-05-14T16:21:06.850Z,101794.73
2019-05-14T16:23:34.994Z,101792.83
2019-05-14T16:26:03.121Z,101793.32
2019-05-14T16:28:31.426Z,101785.82
2019-05-14T16:30:59.661Z,101789.45
2019-05-14T16:33:29.145Z,101785.86
2019-05-14T16:35:58.185Z,101781.41
2019-05-14T16:38:28.511Z,101788.23
2019-05-14T16:40:55.176Z,101788.48
2019-05-14T16:43:23.425Z,101780.84
2019-05-14T16:45:51.633Z,101783.05
2019-05-14T16:48:19.941Z,101782.35
2019-05-14T16:50:48.883Z,101781.14
2019-05-14T16:53:19.416Z,101769.74
2019-05-14T16:55:46.129Z,101785.42
2019-05-14T16:58:14.298Z,101790.11
2019-05-14T17:00:42.496Z,101786.70
2019-05-14T17:03:10.586Z,101790.70
2019-05-14T17:05:38.774Z,101783.68
2019-05-14T17:08:09.933Z,101782.87
2019-05-14T17:10:35.910Z,101780.23
2019-05-14T17:13:04.034Z,101783.09
2019-05-14T17:15:32.252Z,101783.98
2019-05-14T17:18:00.508Z,101781.59
2019-05-14T17:20:28.683Z,101780.84
2019-05-14T17:22:59.271Z,101784.66
2019-05-14T17:25:27.918Z,101782.55
2019-05-14T17:27:55.586Z,101775.78
2019-05-14T17:30:23.816Z,101547.41
2019-05-14T17:32:52.011Z,101772.71
2019-05-14T17:35:20.169Z,101775.87
2019-05-14T17:37:48.534Z,101774.13
2019-05-14T17:40:16.790Z,101777.78
2019-05-14T17:42:44.983Z,101776.40
2019-05-14T17:45:13.338Z,101779.48
2019-05-14T17:47:41.513Z,101769.73
2019-05-14T17:50:09.861Z,101766.78
2019-05-14T17:52:42.913Z,101775.22
2019-05-14T17:55:11.567Z,101768.64
2019-05-14T17:57:44.377Z,101771.84
2019-05-14T18:00:09.489Z,101770.22
2019-05-14T18:02:37.851Z,101760.89
2019-05-14T18:05:09.501Z,101766.41
2019-05-14T18:07:36.529Z,101764.98
2019-05-14T18:10:05.308Z,101766.92
2019-05-14T18:12:33.404Z,101768.30
2019-05-14T18:15:01.583Z,101769.35
2019-05-14T18:17:29.785Z,101765.92
2019-05-14T18:19:58.843Z,101760.23
2019-05-14T18:22:28.637Z,101758.90
2019-05-14T18:24:59.194Z,101766.52
2019-05-14T18:27:29.342Z,101759.31
2019-05-14T18:29:59.113Z,101757.48
2019-05-14T18:32:26.922Z,101759.57
2019-05-14T18:34:55.035Z,101755.36
2019-05-14T18:37:23.296Z,101758.87
2019-05-14T18:39:51.687Z,101762.64
2019-05-14T18:42:19.892Z,101763.41
2019-05-14T18:44:49.778Z,101756.52
2019-05-14T18:47:20.079Z,101761.84
2019-05-14T18:49:48.621Z,101768.47
2019-05-14T18:52:18.403Z,101756.56
2019-05-14T18:54:48.350Z,101761.31
2019-05-14T18:57:18.034Z,101757.77
2019-05-14T18:59:49.116Z,101758.75
2019-05-14T19:02:18.307Z,101760.59
2019-05-14T19:04:48.289Z,101759.73
2019-05-14T19:07:16.053Z,101748.80
2019-05-14T19:09:44.394Z,101748.80
2019-05-14T19:12:12.791Z,101753.20
2019-05-14T19:14:40.939Z,101755.22
2019-05-14T19:17:09.314Z,101754.23
2019-05-14T19:19:38.648Z,101757.05
2019-05-14T19:22:07.041Z,101758.73
2019-05-14T19:24:35.311Z,101759.45
2019-05-14T19:27:03.594Z,101764.86
2019-05-14T19:29:31.773Z,101764.26
2019-05-14T19:31:59.906Z,101766.42
2019-05-14T19:34:28.766Z,101770.89
2019-05-14T19:36:56.995Z,101766.30
2019-05-14T19:39:25.180Z,101625.74
2019-05-14T19:41:53.451Z,101766.28
2019-05-14T19:44:21.733Z,101763.81
2019-05-14T19:46:49.951Z,101767.50
2019-05-14T19:49:18.511Z,101769.08
2019-05-14T19:51:48.349Z,101769.08
2019-05-14T19:54:19.528Z,101777.18
2019-05-14T19:56:55.533Z,101777.29
2019-05-14T19:59:18.306Z,101772.42
2019-05-14T20:01:48.426Z,101770.47
2019-05-14T20:04:18.257Z,101779.16
2019-05-14T20:06:49.139Z,101777.38
2019-05-14T20:09:17.920Z,101777.45
2019-05-14T20:11:48.863Z,101776.37
2019-05-14T20:14:16.031Z,101783.29
2019-05-14T20:16:44.284Z,101783.60
2019-05-14T20:19:12.499Z,101781.03
2019-05-14T20:21:40.728Z,101778.95
2019-05-14T20:24:08.910Z,101775.16
2019-05-14T20:26:39.039Z,101777.08
2019-05-14T20:29:08.828Z,101776.45
2019-05-14T20:31:38.853Z,101775.73
2019-05-14T20:34:08.442Z,101783.06
2019-05-14T20:36:38.798Z,101777.80
2019-05-14T20:39:08.675Z,101769.07
2019-05-14T20:41:38.543Z,101771.55
2019-05-14T20:44:06.861Z,101771.67
2019-05-14T20:46:35.022Z,101770.26
2019-05-14T20:49:03.187Z,101780.59
2019-05-14T20:51:31.376Z,101776.63
2019-05-14T20:53:59.754Z,101770.13
2019-05-14T20:56:28.471Z,101767.70
2019-05-14T20:58:58.926Z,101763.31
2019-05-14T21:01:29.124Z,101775.48
2019-05-14T21:03:59.275Z,101774.98
2019-05-14T21:06:28.018Z,101771.63
2019-05-14T21:08:58.377Z,101476.80
2019-05-14T21:11:28.564Z,101768.65
2019-05-14T21:13:58.130Z,101768.34
2019-05-14T21:16:28.282Z,101760.40
2019-05-14T21:18:59.059Z,101760.08
2019-05-14T21:21:28.104Z,101762.88
2019-05-14T21:23:58.497Z,101765.19
2019-05-14T21:26:26.045Z,101762.14
2019-05-14T21:28:54.317Z,101760.92
2019-05-14T21:31:22.620Z,101771.20
2019-05-14T21:33:50.779Z,101765.50
2019-05-14T21:36:19.501Z,101757.10
2019-05-14T21:38:49.126Z,101754.50
2019-05-14T21:41:20.132Z,101756.78
2019-05-14T21:43:49.276Z,101759.09
2019-05-14T21:46:19.432Z,101760.95
2019-05-14T21:48:47.913Z,101760.52
2019-05-14T21:51:18.047Z,101761.43
2019-05-14T21:53:48.219Z,101758.84
2019-05-14T21:56:21.277Z,101764.66
2019-05-14T21:58:48.034Z,101761.16
2019-05-14T22:01:16.079Z,101760.32
2019-05-14T22:03:44.363Z,101761.29
2019-05-14T22:06:12.483Z,101762.20
2019-05-14T22:08:40.736Z,101758.69
2019-05-14T22:11:08.990Z,101757.81
2019-05-14T22:13:38.126Z,101761.84
2019-05-14T22:16:08.405Z,101767.20
2019-05-14T22:18:38.650Z,101764.99
2019-05-14T22:21:08.645Z,101762.34
2019-05-14T22:23:38.531Z,101766.36
2019-05-14T22:26:06.077Z,101759.72
2019-05-14T22:28:34.229Z,101757.95
2019-05-14T22:31:02.529Z,101757.09
2019-05-14T22:33:30.666Z,101750.44
2019-05-14T22:36:00.962Z,101756.66
2019-05-14T22:38:29.492Z,101755.78
2019-05-14T22:40:59.231Z,101510.84
2019-05-14T22:43:28.825Z,101753.59
2019-05-14T22:45:59.090Z,101761.57
2019-05-14T22:48:27.036Z,101754.48
2019-05-14T22:50:55.413Z,101755.34
2019-05-14T22:53:23.603Z,101758.48
2019-05-14T22:55:51.797Z,101755.34
2019-05-14T22:58:25.542Z,101755.36
2019-05-14T23:01:01.561Z,101753.12
2019-05-14T23:03:21.169Z,101749.13
2019-05-14T23:05:50.154Z,101762.42
2019-05-14T23:08:18.548Z,101760.20
2019-05-14T23:10:49.120Z,101754.00
2019-05-14T23:13:18.599Z,101757.08
2019-05-14T23:15:48.094Z,101751.31
2019-05-14T23:18:18.107Z,101756.63
2019-05-14T23:20:49.037Z,101758.33
2019-05-14T23:23:18.525Z,101757.44
2019-05-14T23:25:46.697Z,101758.28
2019-05-14T23:28:14.844Z,101757.38
2019-05-14T23:30:43.050Z,101761.31
2019-05-14T23:33:11.212Z,101753.77
2019-05-14T23:35:39.822Z,101755.09
2019-05-14T23:38:08.487Z,101759.50
2019-05-14T23:40:38.805Z,101750.17
2019-05-14T23:43:07.242Z,101749.27
2019-05-14T23:45:37.877Z,101754.70
2019-05-14T23:48:05.355Z,101748.72
2019-05-14T23:50:33.496Z,101741.67
2019-05-14T23:53:01.635Z,101745.17
2019-05-14T23:55:29.772Z,101739.31
2019-05-14T23:57:58.653Z,101735.41
